createdAt,value
2024-04-12T00:01:44.551Z,0.60
2024-04-12T00:04:17.230Z,0.65
2024-04-12T00:06:50.993Z,0.88
2024-04-12T00:09:22.143Z,0.32
2024-04-12T00:11:50.277Z,0.73
2024-04-12T00:14:23.049Z,0.93
2024-04-12T00:16:57.644Z,1.05
2024-04-12T00:19:25.104Z,1.00
2024-04-12T00:21:59.177Z,1.15
2024-04-12T00:24:27.175Z,0.75
2024-04-12T00:27:00.567Z,0.93
2024-04-12T00:29:32.256Z,0.68
2024-04-12T00:32:15.418Z,0.47
2024-04-12T00:34:49.141Z,0.65
2024-04-12T00:37:17.735Z,0.55
2024-04-12T00:39:49.949Z,0.50
2024-04-12T00:42:25.624Z,0.47
2024-04-12T00:44:55.363Z,0.60
2024-04-12T00:47:24.397Z,1.27
2024-04-12T00:49:52.421Z,0.45
2024-04-12T00:52:25.010Z,0.47
2024-04-12T00:55:11.408Z,1.15
2024-04-12T00:57:39.973Z,0.80
2024-04-12T01:00:10.470Z,1.40
2024-04-12T01:02:45.128Z,0.90
2024-04-12T01:05:16.416Z,0.77
2024-04-12T01:07:53.856Z,0.32
2024-04-12T01:10:42.355Z,0.32
2024-04-12T01:13:13.080Z,0.32
2024-04-12T01:15:39.685Z,0.30
2024-04-12T01:18:13.196Z,0.43
2024-04-12T01:20:41.183Z,1.02
2024-04-12T01:23:08.205Z,0.60
2024-04-12T01:25:35.742Z,0.50
2024-04-12T01:28:05.814Z,1.27
2024-04-12T01:30:32.804Z,0.25
2024-04-12T01:33:00.494Z,0.50
2024-04-12T01:35:27.489Z,0.65
2024-04-12T01:37:54.395Z,0.70
2024-04-12T01:40:25.024Z,0.60
2024-04-12T01:42:53.365Z,0.60
2024-04-12T01:45:28.434Z,0.63
2024-04-12T01:47:56.375Z,0.68
2024-04-12T01:50:23.840Z,0.50
2024-04-12T01:52:55.096Z,0.50
2024-04-12T01:55:23.601Z,0.65
2024-04-12T01:57:56.698Z,0.47
2024-04-12T02:00:25.131Z,0.38
2024-04-12T02:02:55.168Z,0.55
2024-04-12T02:05:35.230Z,0.55
2024-04-12T02:08:12.224Z,0.75
2024-04-12T02:10:43.197Z,0.40
2024-04-12T02:13:20.311Z,0.40
2024-04-12T02:15:55.112Z,0.20
2024-04-12T02:18:23.329Z,0.88
2024-04-12T02:20:54.028Z,0.10
2024-04-12T02:23:22.585Z,0.43
2024-04-12T02:25:51.154Z,0.32
2024-04-12T02:28:19.766Z,0.28
2024-04-12T02:30:59.131Z,0.05
2024-04-12T02:33:29.350Z,0.82
2024-04-12T02:36:03.471Z,0.57
2024-04-12T02:38:31.113Z,0.30
2024-04-12T02:41:00.742Z,1.35
2024-04-12T02:43:34.680Z,1.35
2024-04-12T02:46:04.690Z,0.55
2024-04-12T02:48:32.462Z,0.75
2024-04-12T02:51:04.581Z,0.50
2024-04-12T02:53:31.748Z,0.43
2024-04-12T02:56:02.451Z,0.30
2024-04-12T02:58:49.982Z,0.65
2024-04-12T03:01:20.050Z,0.90
2024-04-12T03:03:48.179Z,0.75
2024-04-12T03:06:18.300Z,0.50
2024-04-12T03:08:49.151Z,0.50
2024-04-12T03:11:24.283Z,0.57
2024-04-12T03:14:11.690Z,0.45
2024-04-12T03:16:43.724Z,0.63
2024-04-12T03:19:17.106Z,0.50
2024-04-12T03:21:44.094Z,1.05
2024-04-12T03:24:11.808Z,0.25
2024-04-12T03:26:41.539Z,0.50
2024-04-12T03:29:08.173Z,1.00
2024-04-12T03:31:39.788Z,0.22
2024-04-12T03:34:08.133Z,0.28
2024-04-12T03:36:39.642Z,1.38
2024-04-12T03:39:20.946Z,0.45
2024-04-12T03:41:54.371Z,0.57
2024-04-12T03:44:21.147Z,1.25
2024-04-12T03:46:51.967Z,1.00
2024-04-12T03:49:22.400Z,1.05
2024-04-12T03:51:51.791Z,0.63
2024-04-12T03:54:19.505Z,0.45
2024-04-12T03:56:51.027Z,0.20
2024-04-12T03:59:19.092Z,0.75
2024-04-12T04:01:49.192Z,0.57
2024-04-12T04:04:20.369Z,0.32
2024-04-12T04:06:50.297Z,1.23
2024-04-12T04:09:20.827Z,0.38
2024-04-12T04:11:54.474Z,0.80
2024-04-12T04:14:22.502Z,0.77
2024-04-12T04:16:51.015Z,0.35
2024-04-12T04:19:41.062Z,0.63
2024-04-12T04:22:41.067Z,0.25
2024-04-12T04:25:11.942Z,0.45
2024-04-12T04:27:39.640Z,0.70
2024-04-12T04:30:07.468Z,0.20
2024-04-12T04:32:34.618Z,1.33
2024-04-12T04:35:07.744Z,0.45
2024-04-12T04:37:39.512Z,0.57
2024-04-12T04:40:13.278Z,0.93
2024-04-12T04:42:41.118Z,1.08
2024-04-12T04:45:09.610Z,0.85
2024-04-12T04:47:40.640Z,0.52
2024-04-12T04:50:09.770Z,0.30
2024-04-12T04:52:38.134Z,0.70
2024-04-12T04:55:08.254Z,0.52
2024-04-12T04:57:36.908Z,1.00
2024-04-12T05:00:08.223Z,1.13
2024-04-12T05:02:40.391Z,0.95
2024-04-12T05:05:07.118Z,1.15
2024-04-12T05:07:36.779Z,0.70
2024-04-12T05:10:10.132Z,0.43
2024-04-12T05:12:37.781Z,0.60
2024-04-12T05:15:23.865Z,0.45
2024-04-12T05:17:56.022Z,0.40
2024-04-12T05:20:40.171Z,0.20
2024-04-12T05:23:13.098Z,0.65
2024-04-12T05:25:44.624Z,0.90
2024-04-12T05:28:13.673Z,0.15
2024-04-12T05:30:44.851Z,0.40
2024-04-12T05:33:13.230Z,0.47
2024-04-12T05:35:41.362Z,0.98
2024-04-12T05:38:11.207Z,1.05
2024-04-12T05:40:46.584Z,1.35
2024-04-12T05:43:16.609Z,0.82
2024-04-12T05:45:45.976Z,0.43
2024-04-12T05:48:15.664Z,0.50
2024-04-12T05:50:42.825Z,0.30
2024-04-12T05:53:12.976Z,0.40
2024-04-12T05:55:45.569Z,0.93
2024-04-12T06:00:42.496Z,0.32
2024-04-12T06:03:16.045Z,1.08
2024-04-12T06:05:54.914Z,0.60
2024-04-12T06:08:21.451Z,0.93
2024-04-12T06:10:47.958Z,0.50
2024-04-12T06:13:17.886Z,0.35
2024-04-12T06:15:45.252Z,1.17
2024-04-12T06:18:12.028Z,0.77
2024-04-12T06:20:38.994Z,0.77
2024-04-12T06:23:10.740Z,0.50
2024-04-12T06:25:45.034Z,0.93
2024-04-12T06:28:15.461Z,1.02
2024-04-12T06:30:48.673Z,0.22
2024-04-12T06:33:20.571Z,0.90
2024-04-12T06:35:50.617Z,0.98
2024-04-12T06:38:24.069Z,0.70
2024-04-12T06:40:56.971Z,1.05
2024-04-12T06:43:23.904Z,0.60
2024-04-12T06:46:10.061Z,1.15
2024-04-12T06:48:37.983Z,1.05
2024-04-12T06:51:12.963Z,1.02
2024-04-12T06:53:47.094Z,1.10
2024-04-12T06:56:18.850Z,1.00
2024-04-12T06:58:52.330Z,1.02
2024-04-12T07:01:27.298Z,0.73
2024-04-12T07:03:58.018Z,1.00
2024-04-12T07:06:26.733Z,1.10
2024-04-12T07:08:53.630Z,1.00
2024-04-12T07:11:22.741Z,2.70
2024-04-12T07:13:52.438Z,0.98
2024-04-12T07:16:19.670Z,0.50
2024-04-12T07:18:47.777Z,1.65
2024-04-12T07:21:17.017Z,0.70
2024-04-12T07:23:51.933Z,0.95
2024-04-12T07:26:29.552Z,1.23
2024-04-12T07:29:00.402Z,1.45
2024-04-12T07:31:28.237Z,0.50
2024-04-12T07:34:02.830Z,1.70
2024-04-12T07:36:33.235Z,1.30
2024-04-12T07:39:04.547Z,0.55
2024-04-12T07:41:37.744Z,0.60
2024-04-12T07:44:06.628Z,1.90
2024-04-12T07:46:37.342Z,1.30
2024-04-12T07:49:04.716Z,1.27
2024-04-12T07:51:40.689Z,0.82
2024-04-12T07:54:13.449Z,1.50
2024-04-12T07:57:04.135Z,1.58
2024-04-12T07:59:31.045Z,1.30
2024-04-12T08:01:58.968Z,1.17
2024-04-12T08:04:38.224Z,1.05
2024-04-12T08:07:15.358Z,1.10
2024-04-12T08:09:46.530Z,1.13
2024-04-12T08:12:19.630Z,0.60
2024-04-12T08:14:55.412Z,1.33
2024-04-12T08:17:28.401Z,1.15
2024-04-12T08:20:15.750Z,1.05
2024-04-12T08:22:45.763Z,0.77
2024-04-12T08:25:23.265Z,0.90
2024-04-12T08:27:55.674Z,0.80
2024-04-12T08:30:23.304Z,1.10
2024-04-12T08:32:50.738Z,1.30
2024-04-12T08:35:26.404Z,1.17
2024-04-12T08:37:55.324Z,2.25
2024-04-12T08:40:26.672Z,1.40
2024-04-12T08:43:10.154Z,1.60
2024-04-12T08:45:38.666Z,1.05
2024-04-12T08:48:06.212Z,0.80
2024-04-12T08:50:37.308Z,1.17
2024-04-12T08:53:13.142Z,1.13
2024-04-12T08:55:44.258Z,1.45
2024-04-12T08:58:12.204Z,1.20
2024-04-12T09:00:43.751Z,2.42
2024-04-12T09:03:25.704Z,1.17
2024-04-12T09:05:56.743Z,1.10
2024-04-12T09:08:33.529Z,1.90
2024-04-12T09:11:04.960Z,0.98
2024-04-12T09:13:34.541Z,0.98
2024-04-12T09:16:04.687Z,1.88
2024-04-12T09:18:45.503Z,1.00
2024-04-12T09:21:25.279Z,1.55
2024-04-12T09:23:52.485Z,1.20
2024-04-12T09:26:24.245Z,1.45
2024-04-12T09:28:53.073Z,1.40
2024-04-12T09:31:39.832Z,1.77
2024-04-12T09:34:31.512Z,0.93
2024-04-12T09:37:03.760Z,1.67
2024-04-12T09:39:59.256Z,1.58
2024-04-12T09:42:46.380Z,1.55
2024-04-12T09:45:20.941Z,1.70
2024-04-12T09:48:10.460Z,1.35
2024-04-12T09:50:57.479Z,1.15
2024-04-12T09:53:43.107Z,1.08
2024-04-12T09:56:32.492Z,2.05
2024-04-12T09:59:28.396Z,1.50
2024-04-12T10:02:15.647Z,1.77
2024-04-12T10:05:02.645Z,1.42
2024-04-12T10:07:49.332Z,2.22
2024-04-12T10:10:36.324Z,1.42
2024-04-12T10:13:24.085Z,1.30
2024-04-12T10:16:15.907Z,1.17
2024-04-12T10:19:01.425Z,1.30
2024-04-12T10:21:48.985Z,1.17
2024-04-12T10:24:34.637Z,1.48
2024-04-12T10:27:21.146Z,1.48
2024-04-12T10:30:06.520Z,1.10
2024-04-12T10:32:53.169Z,1.30
2024-04-12T10:35:38.797Z,1.45
2024-04-12T10:38:11.272Z,1.77
2024-04-12T10:40:46.774Z,1.75
2024-04-12T10:43:15.352Z,2.30
2024-04-12T10:45:49.908Z,1.25
2024-04-12T10:48:20.277Z,2.33
2024-04-12T10:50:49.998Z,1.73
2024-04-12T10:53:18.631Z,1.65
2024-04-12T10:55:46.048Z,1.85
2024-04-12T10:58:15.778Z,1.45
2024-04-12T11:00:49.145Z,1.10
2024-04-12T11:03:22.270Z,1.60
2024-04-12T11:05:51.571Z,1.15
2024-04-12T11:08:23.632Z,1.20
2024-04-12T11:10:59.296Z,2.05
2024-04-12T11:13:36.737Z,1.95
2024-04-12T11:16:22.378Z,1.30
2024-04-12T11:19:13.851Z,2.00
2024-04-12T11:21:59.305Z,1.63
2024-04-12T11:24:44.202Z,2.30
2024-04-12T11:27:30.000Z,1.75
2024-04-12T11:30:15.388Z,1.60
2024-04-12T11:32:44.023Z,2.05
2024-04-12T11:35:13.788Z,2.95
2024-04-12T11:37:45.021Z,2.95
2024-04-12T11:40:18.284Z,1.92
2024-04-12T11:42:49.143Z,2.00
2024-04-12T11:45:19.198Z,2.15
2024-04-12T11:47:46.248Z,1.80
2024-04-12T11:50:13.123Z,1.92
2024-04-12T11:52:43.070Z,1.33
2024-04-12T11:55:13.475Z,1.50
2024-04-12T11:57:46.387Z,2.33
2024-04-12T12:00:16.678Z,1.80
2024-04-12T12:02:44.837Z,2.25
2024-04-12T12:05:23.764Z,2.10
2024-04-12T12:10:36.021Z,2.40
2024-04-12T12:13:05.623Z,1.77
2024-04-12T12:15:32.208Z,1.45
2024-04-12T12:17:59.158Z,3.53
2024-04-12T12:20:31.947Z,2.15
2024-04-12T12:22:59.792Z,1.77
2024-04-12T12:25:27.801Z,2.08
2024-04-12T12:27:56.235Z,2.00
2024-04-12T12:30:24.464Z,1.05
2024-04-12T12:32:51.405Z,2.45
2024-04-12T12:35:24.259Z,2.40
2024-04-12T12:37:56.475Z,2.13
2024-04-12T12:40:23.576Z,1.75
2024-04-12T12:42:53.422Z,1.58
2024-04-12T12:45:21.003Z,1.60
2024-04-12T12:47:48.665Z,2.33
2024-04-12T12:50:34.351Z,1.98
2024-04-12T12:53:01.077Z,1.70
2024-04-12T12:55:29.937Z,1.77
2024-04-12T12:58:14.103Z,1.77
2024-04-12T13:00:46.380Z,1.75
2024-04-12T13:03:21.423Z,2.00
2024-04-12T13:05:50.108Z,2.38
2024-04-12T13:08:17.171Z,2.33
2024-04-12T13:10:50.535Z,2.28
2024-04-12T13:13:23.266Z,1.20
2024-04-12T13:15:55.609Z,2.22
2024-04-12T13:18:28.990Z,2.00
2024-04-12T13:20:57.275Z,2.17
2024-04-12T13:23:28.180Z,1.92
2024-04-12T13:25:55.202Z,1.95
2024-04-12T13:28:24.703Z,1.27
2024-04-12T13:30:51.808Z,1.70
2024-04-12T13:33:18.585Z,1.60
2024-04-12T13:35:45.391Z,2.05
2024-04-12T13:38:16.181Z,2.45
2024-04-12T13:40:47.377Z,1.65
2024-04-12T13:43:17.155Z,1.45
2024-04-12T13:46:12.052Z,1.75
2024-04-12T13:48:57.461Z,2.20
2024-04-12T13:51:24.118Z,1.92
2024-04-12T13:53:53.867Z,1.92
2024-04-12T13:56:21.988Z,1.90
2024-04-12T13:58:54.829Z,1.70
2024-04-12T14:01:24.401Z,1.05
2024-04-12T14:04:19.118Z,2.60
2024-04-12T14:06:50.673Z,2.17
2024-04-12T14:09:24.315Z,2.08
2024-04-12T14:11:52.171Z,1.88
2024-04-12T14:14:21.999Z,1.38
2024-04-12T14:16:49.813Z,2.00
2024-04-12T14:19:19.828Z,1.63
2024-04-12T14:21:48.755Z,2.15
2024-04-12T14:24:38.463Z,1.23
2024-04-12T14:27:05.734Z,1.70
2024-04-12T14:29:33.386Z,2.00
2024-04-12T14:32:06.952Z,1.67
2024-04-12T14:34:34.509Z,1.83
2024-04-12T14:37:01.595Z,1.58
2024-04-12T14:39:33.221Z,2.35
2024-04-12T14:42:01.785Z,1.85
2024-04-12T14:44:40.419Z,1.80
2024-04-12T14:47:07.847Z,2.28
2024-04-12T14:49:34.467Z,2.60
2024-04-12T14:52:02.387Z,2.50
2024-04-12T14:54:31.804Z,2.25
2024-04-12T14:56:58.467Z,1.70
2024-04-12T14:59:25.593Z,2.08
2024-04-12T15:01:52.353Z,2.08
2024-04-12T15:04:40.536Z,1.65
2024-04-12T15:07:25.727Z,2.80
2024-04-12T15:10:11.124Z,2.60
2024-04-12T15:12:58.191Z,2.50
2024-04-12T15:15:43.105Z,2.85
2024-04-12T15:18:28.550Z,2.47
2024-04-12T15:21:18.302Z,2.03
2024-04-12T15:24:05.875Z,2.33
2024-04-12T15:26:51.208Z,2.42
2024-04-12T15:29:36.555Z,1.92
2024-04-12T15:32:21.874Z,2.53
2024-04-12T15:35:07.210Z,1.83
2024-04-12T15:37:52.763Z,1.83
2024-04-12T15:40:38.255Z,3.10
2024-04-12T15:43:26.866Z,2.55
2024-04-12T15:46:12.150Z,1.40
2024-04-12T15:48:41.046Z,2.10
2024-04-12T15:51:08.515Z,2.47
2024-04-12T15:53:37.230Z,2.33
2024-04-12T15:56:04.893Z,2.00
2024-04-12T15:58:50.056Z,1.77
2024-04-12T16:01:36.751Z,2.03
2024-04-12T16:04:22.960Z,1.17
2024-04-12T16:07:09.026Z,2.15
2024-04-12T16:10:01.084Z,1.33
2024-04-12T16:12:28.335Z,2.47
2024-04-12T16:14:58.158Z,2.20
2024-04-12T16:17:25.319Z,2.13
2024-04-12T16:20:05.165Z,3.03
2024-04-12T16:22:32.484Z,2.85
2024-04-12T16:24:59.016Z,2.47
2024-04-12T16:27:26.637Z,2.15
2024-04-12T16:29:56.045Z,2.40
2024-04-12T16:32:22.662Z,1.90
2024-04-12T16:34:59.389Z,2.00
2024-04-12T16:37:26.027Z,2.00
2024-04-12T16:39:53.498Z,1.85
2024-04-12T16:42:20.199Z,2.80
2024-04-12T16:44:47.153Z,2.38
2024-04-12T16:47:15.376Z,1.58
2024-04-12T16:49:44.281Z,1.95
2024-04-12T16:52:10.846Z,1.75
2024-04-12T16:54:37.433Z,2.55
2024-04-12T16:57:06.460Z,1.95
2024-04-12T16:59:36.212Z,2.03
2024-04-12T17:02:06.027Z,2.03
2024-04-12T17:04:32.617Z,1.08
2024-04-12T17:07:00.562Z,1.30
2024-04-12T17:09:27.165Z,1.48
2024-04-12T17:11:56.507Z,0.98
2024-04-12T17:14:23.835Z,1.13
2024-04-12T17:16:50.543Z,1.13
2024-04-12T17:19:17.560Z,0.90
2024-04-12T17:21:44.215Z,1.88
2024-04-12T17:24:15.256Z,1.30
2024-04-12T17:26:43.652Z,2.50
2024-04-12T17:29:10.735Z,1.42
2024-04-12T17:31:40.385Z,1.65
2024-04-12T17:34:10.520Z,1.52
2024-04-12T17:36:37.256Z,1.95
2024-04-12T17:39:07.820Z,1.58
2024-04-12T17:41:34.576Z,1.55
2024-04-12T17:44:01.154Z,2.22
2024-04-12T17:46:29.105Z,2.08
2024-04-12T17:48:58.479Z,1.90
2024-04-12T17:51:25.986Z,1.80
2024-04-12T17:53:56.019Z,1.75
2024-04-12T17:56:23.349Z,2.08
2024-04-12T17:58:49.954Z,2.58
2024-04-12T18:01:16.548Z,1.77
2024-04-12T18:03:44.541Z,2.28
2024-04-12T18:06:13.097Z,1.95
2024-04-12T18:08:39.819Z,2.58
2024-04-12T18:11:10.029Z,2.80
2024-04-12T18:13:40.699Z,1.98
2024-04-12T18:16:07.522Z,1.42
2024-04-12T18:18:34.210Z,1.63
2024-04-12T18:21:08.800Z,1.42
2024-04-12T18:23:36.233Z,2.15
2024-04-12T18:26:03.038Z,2.60
2024-04-12T18:28:29.836Z,2.80
2024-04-12T18:31:01.649Z,1.52
2024-04-12T18:33:33.006Z,2.55
2024-04-12T18:36:13.435Z,2.83
2024-04-12T18:38:59.261Z,3.00
2024-04-12T18:41:44.625Z,1.05
2024-04-12T18:44:29.818Z,1.60
2024-04-12T18:46:56.419Z,1.92
2024-04-12T18:49:23.246Z,1.88
2024-04-12T18:51:50.333Z,2.15
2024-04-12T18:54:17.008Z,3.17
2024-04-12T18:56:43.590Z,1.98
2024-04-12T18:59:10.229Z,1.73
2024-04-12T19:01:37.065Z,2.55
2024-04-12T19:04:03.905Z,2.75
2024-04-12T19:06:34.047Z,3.78
2024-04-12T19:09:01.087Z,2.60
2024-04-12T19:11:28.500Z,5.32
2024-04-12T19:13:59.069Z,3.70
2024-04-12T19:16:30.267Z,3.28
2024-04-12T19:18:56.901Z,3.20
2024-04-12T19:21:25.827Z,2.72
2024-04-12T19:23:54.363Z,3.28
2024-04-12T19:26:21.120Z,4.55
2024-04-12T19:28:47.638Z,3.80
2024-04-12T19:31:14.190Z,2.40
2024-04-12T19:33:40.765Z,3.22
2024-04-12T19:36:07.701Z,1.58
2024-04-12T19:38:39.388Z,3.47
2024-04-12T19:41:07.605Z,2.38
2024-04-12T19:43:35.164Z,3.42
2024-04-12T19:46:01.773Z,2.97
2024-04-12T19:48:28.574Z,2.42
2024-04-12T19:50:55.650Z,2.63
2024-04-12T19:53:23.281Z,2.25
2024-04-12T19:55:56.533Z,2.50
2024-04-12T19:58:24.587Z,3.13
2024-04-12T20:00:56.892Z,2.83
2024-04-12T20:03:26.198Z,3.17
2024-04-12T20:05:55.225Z,1.90
2024-04-12T20:08:22.467Z,2.47
2024-04-12T20:11:00.004Z,2.47
2024-04-12T20:13:27.177Z,2.97
2024-04-12T20:15:58.433Z,1.98
2024-04-12T20:18:26.887Z,2.42
2024-04-12T20:20:55.277Z,2.15
2024-04-12T20:23:25.100Z,2.40
2024-04-12T20:26:20.038Z,2.10
2024-04-12T20:28:53.066Z,2.20
2024-04-12T20:31:37.557Z,1.63
2024-04-12T20:34:06.248Z,1.17
2024-04-12T20:36:37.870Z,1.92
2024-04-12T20:39:19.135Z,3.47
2024-04-12T20:41:50.789Z,1.98
2024-04-12T20:44:19.090Z,2.17
2024-04-12T20:46:46.617Z,2.35
2024-04-12T20:49:15.162Z,3.08
2024-04-12T20:51:42.709Z,2.30
2024-04-12T20:54:10.323Z,2.40
2024-04-12T20:56:37.333Z,2.70
2024-04-12T20:59:04.331Z,1.90
2024-04-12T21:01:51.396Z,2.42
2024-04-12T21:04:20.122Z,1.00
2024-04-12T21:06:48.475Z,1.85
2024-04-12T21:09:17.335Z,2.38
2024-04-12T21:11:44.450Z,2.08
2024-04-12T21:14:15.371Z,2.83
2024-04-12T21:16:44.913Z,2.95
2024-04-12T21:19:13.190Z,2.13
2024-04-12T21:21:44.082Z,3.25
2024-04-12T21:24:18.433Z,1.55
2024-04-12T21:26:45.031Z,2.22
2024-04-12T21:29:11.684Z,2.10
2024-04-12T21:31:39.447Z,2.33
2024-04-12T21:34:06.897Z,4.15
2024-04-12T21:36:33.690Z,2.67
2024-04-12T21:39:10.534Z,2.20
2024-04-12T21:41:37.099Z,1.70
2024-04-12T21:44:03.743Z,2.58
2024-04-12T21:46:30.945Z,2.05
2024-04-12T21:48:57.527Z,1.95
2024-04-12T21:51:26.258Z,0.68
2024-04-12T21:53:54.042Z,2.97
2024-04-12T21:56:21.011Z,2.78
2024-04-12T21:58:51.567Z,2.15
2024-04-12T22:01:21.284Z,1.75
2024-04-12T22:03:48.384Z,1.65
2024-04-12T22:06:15.705Z,1.35
2024-04-12T22:08:42.526Z,2.72
2024-04-12T22:11:09.508Z,2.85
2024-04-12T22:13:39.214Z,2.17
2024-04-12T22:16:10.437Z,3.65
2024-04-12T22:18:45.078Z,1.70
2024-04-12T22:21:18.791Z,1.65
2024-04-12T22:23:47.258Z,2.20
2024-04-12T22:26:24.550Z,2.92
2024-04-12T22:28:51.555Z,2.95
2024-04-12T22:31:29.494Z,3.90
2024-04-12T22:33:56.228Z,2.17
2024-04-12T22:36:23.430Z,2.80
2024-04-12T22:38:50.674Z,1.85
2024-04-12T22:41:22.129Z,2.30
2024-04-12T22:43:48.668Z,1.25
2024-04-12T22:46:16.088Z,1.88
2024-04-12T22:48:45.211Z,2.17
2024-04-12T22:51:23.282Z,2.05
2024-04-12T22:53:49.887Z,2.20
2024-04-12T22:56:16.452Z,1.88
2024-04-12T22:58:43.463Z,2.15
2024-04-12T23:01:10.666Z,2.70
2024-04-12T23:03:37.370Z,2.30
2024-04-12T23:06:04.822Z,2.08
2024-04-12T23:08:34.085Z,1.92
2024-04-12T23:11:00.817Z,1.98
2024-04-12T23:13:27.510Z,2.22
2024-04-12T23:15:54.015Z,2.97
2024-04-12T23:18:20.648Z,1.27
2024-04-12T23:20:54.557Z,2.40
2024-04-12T23:23:21.232Z,2.75
2024-04-12T23:25:47.777Z,2.80
2024-04-12T23:28:16.315Z,2.78
2024-04-12T23:30:42.882Z,1.20
2024-04-12T23:33:11.113Z,2.80
2024-04-12T23:35:37.635Z,3.22
2024-04-12T23:38:04.385Z,3.13
2024-04-12T23:40:33.455Z,2.28
2024-04-12T23:43:02.564Z,2.33
2024-04-12T23:45:29.276Z,1.77
2024-04-12T23:47:56.859Z,2.88
2024-04-12T23:50:23.816Z,3.80
2024-04-12T23:52:50.512Z,2.40
2024-04-12T23:55:17.046Z,2.42
2024-04-12T23:57:47.551Z,1.70
